Time;durP1;ratioP1;P1;durP2;ratioP2;P2;SDS_P1;SDS_P2;PMS_P1;PMS_P2;Temp;Humidity;BMP_temperature;BMP_pressure;BME280_temperature;BME280_humidity;BME280_pressure;Samples;Min_cycle;Max_cycle;Signal;HPM_P1;HPM_P2
2021/11/06 00:02:22;;;;;;;9.63;4.87;;;;;;;10.30;88.54;99887.27;1741133;81;20983;-71
2021/11/06 00:04:51;;;;;;;7.67;4.60;;;;;;;10.23;87.18;99893.72;1720046;80;21105;-71
2021/11/06 00:07:25;;;;;;;8.08;4.37;;;;;;;10.14;86.55;99897.70;1740805;82;21096;-70
2021/11/06 00:09:56;;;;;;;7.05;3.90;;;;;;;10.05;85.99;99907.75;1724173;81;21010;-70
2021/11/06 00:12:27;;;;;;;6.97;4.17;;;;;;;9.99;86.22;99904.84;1743924;81;20995;-71
2021/11/06 00:14:55;;;;;;;11.28;5.00;;;;;;;9.94;86.75;99903.01;1721466;82;21589;-70
2021/11/06 00:17:30;;;;;;;6.97;4.30;;;;;;;9.91;87.25;99900.88;1719458;81;21589;-70
2021/11/06 00:20:03;;;;;;;9.23;4.60;;;;;;;9.88;87.48;99881.47;1748428;81;20883;-71
2021/11/06 00:22:33;;;;;;;;;;;;;;;9.81;87.84;99896.97;1750889;81;21029;-71
2021/11/06 00:25:05;;;;;;;7.70;4.60;;;;;;;9.73;88.32;99894.11;1718934;81;20097;-71
2021/11/06 00:27:37;;;;;;;8.80;4.60;;;;;;;9.64;88.65;99893.98;1741015;81;20923;-70
2021/11/06 00:30:05;;;;;;;6.35;4.65;;;;;;;9.57;89.29;99906.70;1748743;81;21081;-70
2021/11/06 00:32:36;;;;;;;7.87;4.35;;;;;;;9.51;89.62;99905.73;1750616;82;21459;-70
2021/11/06 00:35:05;;;;;;;7.22;4.40;;;;;;;9.47;90.11;99918.39;1750411;81;20988;-70
2021/11/06 00:37:39;;;;;;;10.48;4.17;;;;;;;9.40;90.54;99911.93;1748051;81;20918;-70
2021/11/06 00:40:14;;;;;;;9.03;4.40;;;;;;;9.33;91.06;99906.02;1730460;81;20985;-70
2021/11/06 00:42:41;;;;;;;7.70;4.30;;;;;;;9.28;91.69;99901.98;1747342;80;21105;-69
2021/11/06 00:45:12;;;;;;;8.55;4.33;;;;;;;9.23;92.12;99897.44;1746723;81;21057;-70
2021/11/06 00:47:49;;;;;;;7.65;4.70;;;;;;;9.20;92.34;99910.35;1749774;81;21731;-70
2021/11/06 00:50:20;;;;;;;7.70;4.37;;;;;;;9.18;92.67;99912.58;1743142;80;21554;-71
2021/11/06 00:52:50;;;;;;;8.63;4.33;;;;;;;9.15;93.09;99928.23;1744775;80;21481;-71
2021/11/06 00:55:23;;;;;;;8.83;5.35;;;;;;;9.12;93.33;99921.17;1744657;81;21161;-70
2021/11/06 00:57:49;;;;;;;9.65;4.55;;;;;;;9.10;93.61;99918.72;1744522;81;20923;-70
2021/11/06 01:00:19;;;;;;;6.37;4.40;;;;;;;9.10;93.82;99918.72;1747253;81;20970;-70
2021/11/06 01:02:50;;;;;;;8.73;4.97;;;;;;;9.06;93.85;99923.72;1726476;81;21013;-70
2021/11/06 01:05:21;;;;;;;9.88;4.40;;;;;;;9.01;93.91;99915.02;1747702;80;20940;-71
2021/11/06 01:07:52;;;;;;;10.18;5.17;;;;;;;8.99;93.71;99927.38;1724584;82;21003;-70
2021/11/06 01:10:22;;;;;;;10.58;4.87;;;;;;;8.94;93.15;99922.79;1704582;81;20954;-70
2021/11/06 01:12:53;;;;;;;9.03;4.53;;;;;;;8.91;93.01;99916.54;1732451;81;20947;-70
2021/11/06 01:15:26;;;;;;;10.80;5.42;;;;;;;8.93;93.11;99915.69;1731055;81;21525;-73
2021/11/06 01:18:01;;;;;;;8.05;4.80;;;;;;;8.92;92.97;99922.27;1736548;81;21667;-71
2021/11/06 01:20:30;;;;;;;8.80;4.22;;;;;;;8.92;92.15;99927.19;1683647;82;21033;-71
2021/11/06 01:23:06;;;;;;;8.53;5.05;;;;;;;8.91;90.52;99932.41;1682493;83;21075;-71
2021/11/06 01:25:33;;;;;;;8.45;5.08;;;;;;;8.90;90.02;99928.59;1710775;83;20967;-75
2021/11/06 01:28:01;;;;;;;7.37;4.60;;;;;;;8.89;89.82;99946.13;1710742;84;20891;-74
2021/11/06 01:30:34;;;;;;;10.05;4.75;;;;;;;8.88;90.25;99954.09;1710843;84;20958;-76
2021/11/06 01:33:05;;;;;;;8.73;4.37;;;;;;;8.88;90.27;99957.64;1710963;84;21117;-72
2021/11/06 01:35:34;;;;;;;9.68;5.05;;;;;;;8.88;90.17;99942.58;1671200;84;21379;-70
2021/11/06 01:38:05;;;;;;;10.60;4.70;;;;;;;8.88;90.32;99956.83;1710857;83;20907;-70
2021/11/06 01:40:31;;;;;;;5.60;3.58;;;;;;;8.84;90.09;99972.21;1716011;83;20912;-70
2021/11/06 01:43:02;;;;;;;7.28;4.65;;;;;;;8.81;90.25;99981.02;1716120;83;20947;-71
2021/11/06 01:45:35;;;;;;;11.83;4.37;;;;;;;8.78;90.40;99977.48;1732027;81;21159;-71
2021/11/06 01:48:03;;;;;;;11.15;4.70;;;;;;;8.77;90.64;99984.89;1689248;83;28769;-71
2021/11/06 01:50:31;;;;;;;8.58;4.87;;;;;;;8.74;90.09;99990.95;1747350;81;20951;-71
2021/11/06 01:53:04;;;;;;;8.65;4.55;;;;;;;8.69;89.76;99997.03;1743312;81;21007;-70
2021/11/06 01:55:34;;;;;;;8.20;4.22;;;;;;;8.64;89.66;99998.50;1717057;81;20926;-70
2021/11/06 01:58:03;;;;;;;5.75;4.00;;;;;;;8.59;89.67;100010.31;1704106;83;21580;-71
2021/11/06 02:00:30;;;;;;;9.00;4.78;;;;;;;8.54;89.48;100013.11;1746463;81;21398;-70
2021/11/06 02:03:06;;;;;;;7.53;4.92;;;;;;;8.52;89.84;100023.53;1722284;82;20978;-70
2021/11/06 02:05:36;;;;;;;8.80;4.65;;;;;;;8.46;89.97;100024.14;1737282;82;20991;-70
2021/11/06 02:08:04;;;;;;;7.85;4.83;;;;;;;8.43;90.64;100020.61;1741977;81;20860;-70
2021/11/06 02:10:37;;;;;;;11.00;4.60;;;;;;;8.39;91.09;100026.40;1698717;83;21147;-70
2021/11/06 02:13:09;;;;;;;11.03;4.33;;;;;;;8.33;91.44;100022.63;1746249;81;21512;-69
2021/11/06 02:15:43;;;;;;;11.08;5.45;;;;;;;8.27;92.19;100034.14;1721324;82;20887;-69
2021/11/06 02:18:13;;;;;;;9.28;4.58;;;;;;;8.25;92.84;100039.09;1741876;81;21006;-70
2021/11/06 02:21:05;;;;;;;9.00;5.22;;;;;;;8.22;93.44;100046.50;1747138;81;20938;-70
2021/11/06 02:23:40;;;;;;;10.23;4.87;;;;;;;8.18;94.24;100056.38;1733491;81;21123;-71
2021/11/06 02:26:17;;;;;;;9.13;4.87;;;;;;;8.14;94.91;100059.43;1732764;80;21499;-71
2021/11/06 02:28:53;;;;;;;10.03;5.05;;;;;;;8.11;95.63;100058.08;1739245;81;21063;-71
2021/11/06 02:31:22;;;;;;;15.15;5.97;;;;;;;8.07;96.30;100069.91;1750621;81;20888;-71
2021/11/06 02:33:55;;;;;;;11.65;5.20;;;;;;;8.00;96.65;100071.60;1748583;80;21475;-70
2021/11/06 02:36:29;;;;;;;8.63;5.05;;;;;;;7.94;97.42;100062.62;1733077;81;20895;-69
2021/11/06 02:38:56;;;;;;;11.83;4.80;;;;;;;7.92;97.63;100057.99;1747376;81;21577;-70
2021/11/06 02:41:25;;;;;;;9.03;5.10;;;;;;;7.89;97.61;100066.77;1746908;81;21147;-70
2021/11/06 02:44:00;;;;;;;10.25;5.30;;;;;;;7.84;97.93;100061.89;1750703;80;20956;-70
2021/11/06 02:46:27;;;;;;;13.78;5.00;;;;;;;7.81;98.14;100064.64;1750674;81;21498;-71
2021/11/06 02:49:03;;;;;;;10.10;4.62;;;;;;;7.80;98.16;100060.83;1737570;81;20904;-70
2021/11/06 02:51:30;;;;;;;9.75;4.85;;;;;;;7.78;98.21;100057.56;1747441;81;20880;-70
2021/11/06 02:54:02;;;;;;;8.93;4.92;;;;;;;7.77;97.94;100055.92;1745364;81;20924;-71
2021/11/06 02:56:31;;;;;;;9.25;4.72;;;;;;;7.75;97.79;100052.11;1749480;80;20926;-71
2021/11/06 02:59:03;;;;;;;9.55;5.72;;;;;;;7.73;97.64;100061.14;1745439;80;21379;-70
2021/11/06 03:01:32;;;;;;;7.10;4.83;;;;;;;7.69;97.43;100061.45;1744619;81;21112;-70
2021/11/06 03:04:03;;;;;;;8.53;5.42;;;;;;;7.67;97.59;100059.55;1748346;81;20971;-70
2021/11/06 03:06:41;;;;;;;9.98;4.78;;;;;;;7.65;97.81;100061.75;1746352;80;21011;-69
2021/11/06 03:09:13;;;;;;;9.13;5.50;;;;;;;7.65;98.07;100076.77;1748534;81;20991;-69
2021/11/06 03:11:43;;;;;;;9.58;5.53;;;;;;;7.64;98.08;100065.58;1748534;81;20907;-69
2021/11/06 03:14:10;;;;;;;16.87;6.65;;;;;;;7.65;98.33;100059.02;1750473;81;21520;-70
2021/11/06 03:16:46;;;;;;;9.53;5.65;;;;;;;7.68;98.29;100061.18;1736412;82;20884;-69
2021/11/06 03:19:17;;;;;;;11.63;5.90;;;;;;;7.68;98.20;100063.09;1748507;81;20927;-70
2021/11/06 03:21:47;;;;;;;9.80;6.03;;;;;;;7.64;98.14;100057.37;1743873;80;21007;-70
2021/11/06 03:24:19;;;;;;;7.70;5.40;;;;;;;7.65;98.45;100064.48;1761823;79;21055;-70
2021/11/06 03:26:52;;;;;;;10.45;5.33;;;;;;;7.63;98.42;100061.21;1735508;81;20935;-70
2021/11/06 03:29:21;;;;;;;10.82;5.15;;;;;;;7.61;98.23;100060.68;1768522;80;20959;-69
2021/11/06 03:31:56;;;;;;;12.85;5.45;;;;;;;7.57;98.25;100071.36;1770652;80;20955;-71
2021/11/06 03:34:25;;;;;;;11.28;6.45;;;;;;;7.53;98.21;100073.57;1756306;80;20928;-70
2021/11/06 03:36:54;;;;;;;9.88;5.37;;;;;;;7.50;98.25;100070.06;1755737;80;21570;-70
2021/11/06 03:39:24;;;;;;;8.30;5.97;;;;;;;7.49;98.67;100076.08;1743382;81;21634;-69
2021/11/06 03:41:54;;;;;;;9.65;5.37;;;;;;;7.49;98.62;100073.90;1753082;79;20908;-69
2021/11/06 03:44:26;;;;;;;8.48;5.47;;;;;;;7.48;98.68;100075.00;1720561;82;20993;-70
2021/11/06 03:46:58;;;;;;;7.40;4.90;;;;;;;7.47;98.81;100087.84;1704522;81;20956;-69
2021/11/06 03:49:40;;;;;;;11.78;6.17;;;;;;;7.49;99.01;100082.09;1744607;81;26735;-69
2021/11/06 03:52:01;;;;;;;13.70;6.20;;;;;;;7.50;99.06;100083.18;1719783;80;22320;-69
2021/11/06 03:54:34;;;;;;;11.70;5.37;;;;;;;7.52;99.27;100083.69;1751346;81;20935;-69
2021/11/06 03:57:07;;;;;;;8.95;6.25;;;;;;;7.57;99.46;100088.30;1731952;81;21035;-69
2021/11/06 03:59:41;;;;;;;8.73;5.42;;;;;;;7.59;99.01;100084.73;1690632;80;20935;-69
2021/11/06 04:02:12;;;;;;;11.30;5.45;;;;;;;7.58;99.04;100084.47;1693706;81;21017;-69
2021/11/06 04:04:45;;;;;;;9.55;6.15;;;;;;;7.56;98.87;100081.20;1728233;82;21150;-70
2021/11/06 04:07:14;;;;;;;9.98;5.28;;;;;;;7.52;98.65;100078.77;1720964;80;21554;-69
2021/11/06 04:09:49;;;;;;;9.58;6.25;;;;;;;7.48;98.63;100068.17;1728737;81;20911;-70
2021/11/06 04:12:22;;;;;;;9.50;5.53;;;;;;;7.44;98.45;100057.54;1726925;81;21002;-69
2021/11/06 04:14:54;;;;;;;8.05;5.25;;;;;;;7.41;98.36;100063.02;1729401;82;20904;-69
2021/11/06 04:17:25;;;;;;;8.38;5.10;;;;;;;7.39;98.45;100077.50;1733096;81;21778;-69
2021/11/06 04:20:04;;;;;;;9.20;5.30;;;;;;;7.37;98.39;100080.25;1689030;81;20938;-70
2021/11/06 04:22:39;;;;;;;6.97;4.80;;;;;;;7.33;98.32;100078.63;1727409;80;21430;-69
2021/11/06 04:25:08;;;;;;;7.40;4.72;;;;;;;7.29;98.29;100077.01;1741430;80;21533;-69
2021/11/06 04:27:37;;;;;;;7.72;4.55;;;;;;;7.29;98.53;100069.36;1746181;81;21006;-69
2021/11/06 04:30:12;;;;;;;6.92;4.50;;;;;;;7.25;98.57;100073.20;1717146;81;22209;-71
2021/11/06 04:32:41;;;;;;;8.95;5.65;;;;;;;7.24;98.66;100088.50;1745273;81;21596;-70
2021/11/06 04:35:12;;;;;;;10.45;5.60;;;;;;;7.23;98.79;100100.52;1745279;81;20954;-69
2021/11/06 04:37:40;;;;;;;11.50;5.47;;;;;;;7.21;99.06;100101.35;1746555;80;20924;-70
2021/11/06 04:40:11;;;;;;;9.58;5.40;;;;;;;7.23;99.36;100089.60;1750405;80;21008;-71
2021/11/06 04:42:42;;;;;;;9.20;5.55;;;;;;;7.26;99.54;100104.06;1750842;80;22155;-74
2021/11/06 04:45:11;;;;;;;9.60;5.85;;;;;;;7.27;99.50;100105.14;1747878;81;21759;-72
2021/11/06 04:47:40;;;;;;;8.70;4.90;;;;;;;7.28;99.13;100108.14;1744865;81;21003;-68
2021/11/06 04:50:17;;;;;;;11.15;5.40;;;;;;;7.29;98.96;100107.59;1732372;81;21070;-69
2021/11/06 04:52:52;;;;;;;9.03;5.25;;;;;;;7.32;98.87;100111.68;1713004;82;21081;-70
2021/11/06 04:55:17;;;;;;;13.60;5.55;;;;;;;7.34;98.77;100111.67;1712205;83;21162;-69
2021/11/06 04:57:51;;;;;;;11.18;5.60;;;;;;;7.36;98.55;100111.39;1716159;83;22272;-81
2021/11/06 05:00:21;;;;;;;;;;;;;;;7.33;97.71;100109.22;1716000;83;21069;-71
2021/11/06 05:02:51;;;;;;;8.68;4.85;;;;;;;7.26;97.21;100107.61;1666533;83;20102;-71
2021/11/06 05:05:23;;;;;;;8.78;6.35;;;;;;;7.23;97.27;100111.45;1677610;82;21552;-73
2021/11/06 05:07:57;;;;;;;11.70;5.10;;;;;;;7.22;97.25;100115.27;1704830;83;21190;-66
2021/11/06 05:10:33;;;;;;;7.72;4.97;;;;;;;7.22;97.32;100118.00;1703431;83;20994;-67
2021/11/06 05:13:01;;;;;;;11.53;5.58;;;;;;;7.23;97.46;100116.36;1705555;84;21070;-67
2021/11/06 05:15:30;;;;;;;10.95;5.47;;;;;;;7.23;97.52;100123.73;1705478;84;20946;-67
2021/11/06 05:18:02;;;;;;;10.50;6.05;;;;;;;7.25;97.45;100131.10;1705427;84;21069;-76
2021/11/06 05:20:37;;;;;;;9.73;4.83;;;;;;;7.25;97.42;100133.28;1708603;83;21152;-70
2021/11/06 05:23:06;;;;;;;10.18;5.03;;;;;;;7.26;97.36;100124.55;1716268;83;21007;-78
2021/11/06 05:25:36;;;;;;;12.07;5.58;;;;;;;7.25;97.42;100131.10;1716029;83;27341;-83
2021/11/06 05:28:06;;;;;;;10.63;5.50;;;;;;;7.26;97.46;100132.19;1715488;83;21602;-70
2021/11/06 05:30:38;;;;;;;9.40;5.70;;;;;;;7.25;97.24;100123.72;1742135;81;21101;-71
2021/11/06 05:33:05;;;;;;;8.15;5.40;;;;;;;7.25;97.17;100120.17;1746424;80;21508;-69
2021/11/06 05:35:35;;;;;;;7.83;5.53;;;;;;;7.26;96.78;100119.08;1747069;81;20988;-74
2021/11/06 05:38:06;;;;;;;8.13;4.95;;;;;;;7.25;96.72;100125.09;1751095;81;21021;-76
2021/11/06 05:40:38;;;;;;;7.33;4.62;;;;;;;7.27;96.54;100135.73;1689683;83;21466;-67
2021/11/06 05:43:08;;;;;;;6.78;4.50;;;;;;;7.25;96.47;100134.65;1745194;81;20987;-70
2021/11/06 05:45:39;;;;;;;8.50;5.03;;;;;;;7.26;96.32;100125.91;1748198;81;21159;-72
2021/11/06 05:48:10;;;;;;;7.47;5.17;;;;;;;7.21;96.00;100136.30;1751490;81;20978;-67
2021/11/06 05:50:41;;;;;;;8.58;5.10;;;;;;;7.20;96.32;100141.50;1744987;82;21500;-70
2021/11/06 05:53:07;;;;;;;9.48;5.17;;;;;;;7.21;96.30;100152.69;1711928;83;21590;-68
2021/11/06 05:55:39;;;;;;;8.23;4.80;;;;;;;7.23;96.18;100156.50;1748559;81;21061;-69
2021/11/06 05:58:09;;;;;;;7.70;4.92;;;;;;;7.25;96.08;100163.32;1753096;81;21160;-68
2021/11/06 06:00:41;;;;;;;8.08;4.92;;;;;;;7.30;96.10;100172.05;1692251;83;21076;-68
2021/11/06 06:03:12;;;;;;;7.53;4.62;;;;;;;7.33;95.71;100174.77;1720166;81;21010;-66
2021/11/06 06:05:42;;;;;;;13.40;5.20;;;;;;;7.35;95.63;100167.93;1731886;81;21014;-76
2021/11/06 06:08:13;;;;;;;7.75;5.12;;;;;;;7.36;94.73;100179.67;1728095;82;21515;-74
2021/11/06 06:10:45;;;;;;;9.50;5.20;;;;;;;7.35;94.53;100184.87;1736609;82;21212;-71
2021/11/06 06:13:18;;;;;;;10.53;5.47;;;;;;;7.37;94.15;100181.31;1709626;83;21496;-73
2021/11/06 06:15:48;;;;;;;8.10;5.03;;;;;;;7.42;94.27;100182.66;1714141;81;21071;-73
2021/11/06 06:18:19;;;;;;;7.67;5.35;;;;;;;7.54;94.09;100183.94;1696657;83;21015;-68
2021/11/06 06:20:49;;;;;;;7.47;5.40;;;;;;;7.63;93.23;100180.08;1713024;81;21006;-75
2021/11/06 06:23:21;;;;;;;8.53;5.40;;;;;;;7.66;92.87;100181.43;1710725;83;21130;-77
2021/11/06 06:25:55;;;;;;;8.43;5.67;;;;;;;7.74;93.40;100187.13;1710551;84;20927;-68
2021/11/06 06:28:29;;;;;;;9.08;5.45;;;;;;;8.13;94.34;100192.61;1691219;82;20987;-75
2021/11/06 06:30:58;;;;;;;12.33;6.28;;;;;;;8.76;92.05;100187.20;1741348;82;21561;-69
2021/11/06 06:33:25;;;;;;;10.25;5.20;;;;;;;9.44;87.89;100184.81;1740817;81;21079;-79
2021/11/06 06:35:58;;;;;;;8.85;5.83;;;;;;;10.00;84.82;100191.72;1737021;82;21768;-82
2021/11/06 06:38:25;;;;;;;8.45;4.95;;;;;;;10.49;80.69;100198.12;1736889;82;21011;-77
2021/11/06 06:40:54;;;;;;;8.35;5.40;;;;;;;10.79;79.24;100198.73;1731702;81;21518;-79
2021/11/06 06:43:26;;;;;;;9.05;6.12;;;;;;;11.05;76.78;100208.67;1715828;81;20967;-80
2021/11/06 06:45:55;;;;;;;;;;;;;;;11.26;74.71;100207.19;1743015;82;21998;-78
2021/11/06 06:48:24;;;;;;;11.50;5.75;;;;;;;11.46;73.36;100216.97;1720311;82;21102;-76
2021/11/06 06:50:57;;;;;;;9.28;5.55;;;;;;;11.66;70.28;100212.41;1688311;83;20980;-75
2021/11/06 06:53:26;;;;;;;9.08;5.75;;;;;;;11.71;69.79;100208.18;1702393;82;20961;-75
2021/11/06 06:55:54;;;;;;;10.00;5.42;;;;;;;11.70;69.92;100202.42;1711325;83;21071;-73
2021/11/06 06:58:25;;;;;;;8.93;5.62;;;;;;;11.81;67.63;100209.94;1684277;83;20965;-78
2021/11/06 07:00:51;;;;;;;10.70;6.12;;;;;;;11.81;66.77;100215.44;1689734;83;22187;-74
2021/11/06 07:03:21;;;;;;;7.80;5.37;;;;;;;11.67;66.84;100215.41;1710188;83;20972;-74
2021/11/06 07:05:54;;;;;;;11.00;6.17;;;;;;;11.48;66.51;100210.61;1712127;83;21558;-74
2021/11/06 07:08:23;;;;;;;16.37;6.42;;;;;;;11.40;67.29;100204.45;1711320;82;21047;-76
2021/11/06 07:10:51;;;;;;;8.75;5.65;;;;;;;11.43;67.91;100205.21;1741692;81;21553;-76
2021/11/06 07:13:21;;;;;;;12.10;6.20;;;;;;;11.59;67.66;100197.70;1743843;81;21741;-74
2021/11/06 07:15:55;;;;;;;9.23;5.67;;;;;;;11.72;66.00;100190.55;1743743;82;21046;-74
2021/11/06 07:18:22;;;;;;;13.93;6.28;;;;;;;11.74;65.87;100206.19;1743589;81;20987;-76
2021/11/06 07:20:51;;;;;;;12.85;6.10;;;;;;;11.88;65.87;100211.15;1744655;81;20994;-75
2021/11/06 07:23:26;;;;;;;11.05;6.53;;;;;;;12.11;66.25;100216.16;1750863;80;21542;-73
2021/11/06 07:25:59;;;;;;;11.50;7.00;;;;;;;12.26;63.93;100219.09;1751248;81;21787;-74
2021/11/06 07:28:25;;;;;;;10.23;5.70;;;;;;;12.19;64.07;100225.58;1752781;81;20946;-74
2021/11/06 07:30:58;;;;;;;27.30;7.55;;;;;;;12.14;63.35;100229.82;1749088;80;20987;-71
2021/11/06 07:33:29;;;;;;;11.57;6.62;;;;;;;12.04;62.73;100239.70;1749118;80;21083;-74
2021/11/06 07:36:01;;;;;;;11.63;6.47;;;;;;;12.03;63.41;100238.08;1747549;81;21041;-69
2021/11/06 07:38:29;;;;;;;8.83;5.85;;;;;;;12.04;62.67;100238.33;1742500;80;21508;-74
2021/11/06 07:41:05;;;;;;;9.53;5.37;;;;;;;12.11;63.69;100237.35;1747361;81;20927;-76
2021/11/06 07:43:37;;;;;;;12.18;6.87;;;;;;;12.28;62.07;100242.99;1740864;81;21004;-84
2021/11/06 07:46:07;;;;;;;14.20;6.47;;;;;;;12.34;62.14;100243.69;1725854;81;21058;-73
2021/11/06 07:48:37;;;;;;;13.53;7.08;;;;;;;12.50;62.31;100240.28;1680818;82;21025;-70
2021/11/06 07:51:06;;;;;;;7.95;5.65;;;;;;;12.74;61.46;100237.19;1704288;80;21520;-75
2021/11/06 07:53:33;;;;;;;12.15;6.33;;;;;;;12.82;59.57;100240.58;1698255;82;20935;-73
2021/11/06 07:56:05;;;;;;;10.90;6.28;;;;;;;12.80;59.14;100240.63;1700326;83;21057;-80
2021/11/06 07:58:35;;;;;;;10.85;5.58;;;;;;;12.77;58.90;100241.27;1703651;83;21052;-75
2021/11/06 08:01:09;;;;;;;9.33;5.75;;;;;;;12.83;58.55;100259.30;1701921;83;21632;-75
2021/11/06 08:03:40;;;;;;;8.55;5.30;;;;;;;12.88;57.71;100261.36;1666584;82;21136;-70
2021/11/06 08:06:14;;;;;;;7.93;5.53;;;;;;;12.82;57.91;100253.53;1719688;81;21074;-75
2021/11/06 08:08:47;;;;;;;6.85;4.65;;;;;;;12.77;56.87;100228.30;1725248;81;22139;-73
2021/11/06 08:11:20;;;;;;;8.13;5.22;;;;;;;12.60;56.80;100246.11;1730633;80;20994;-70
2021/11/06 08:13:49;;;;;;;9.93;6.30;;;;;;;12.43;57.27;100254.22;1727204;81;21049;-71
2021/11/06 08:16:20;;;;;;;9.08;5.72;;;;;;;12.47;58.75;100267.63;1730943;81;21136;-72
2021/11/06 08:18:51;;;;;;;8.00;5.10;;;;;;;12.64;58.30;100255.38;1687100;82;21015;-69
2021/11/06 08:21:18;;;;;;;8.60;5.72;;;;;;;12.66;57.62;100249.55;1736071;82;21048;-70
2021/11/06 08:23:47;;;;;;;8.45;5.40;;;;;;;12.74;57.24;100251.53;1712685;82;21515;-72
2021/11/06 08:26:14;;;;;;;9.40;5.87;;;;;;;12.76;57.84;100249.27;1709456;83;21118;-70
2021/11/06 08:28:40;;;;;;;8.93;5.42;;;;;;;12.72;56.64;100257.91;1743062;80;21949;-70
2021/11/06 08:31:06;;;;;;;7.92;5.12;;;;;;;12.71;57.26;100254.94;1746725;80;21019;-69
2021/11/06 08:33:33;;;;;;;7.55;5.22;;;;;;;12.83;56.83;100259.30;1696252;83;21115;-68
2021/11/06 08:36:00;;;;;;;9.70;5.95;;;;;;;13.05;55.78;100247.45;1745328;81;20995;-68
2021/11/06 08:38:30;;;;;;;10.20;5.37;;;;;;;13.26;56.20;100253.28;1745780;81;21073;-69
2021/11/06 08:40:57;;;;;;;9.50;5.60;;;;;;;13.42;54.99;100253.91;1746215;81;21944;-69
2021/11/06 08:43:24;;;;;;;7.90;5.05;;;;;;;13.47;54.38;100258.47;1754203;81;21457;-70
2021/11/06 08:45:51;;;;;;;6.10;4.85;;;;;;;13.42;54.96;100260.80;1752871;81;21061;-68
2021/11/06 08:48:17;;;;;;;6.72;5.08;;;;;;;13.32;53.80;100258.88;1722419;81;21021;-70
2021/11/06 08:50:44;;;;;;;6.75;4.70;;;;;;;12.95;53.84;100258.73;1721354;81;21050;-68
2021/11/06 08:53:11;;;;;;;6.05;4.35;;;;;;;12.55;55.42;100256.68;1725921;81;21155;-69
2021/11/06 08:55:38;;;;;;;7.22;4.50;;;;;;;12.41;55.73;100257.84;1715482;80;21022;-69
2021/11/06 08:58:04;;;;;;;6.97;4.65;;;;;;;12.54;56.63;100255.61;1689896;83;21027;-69
2021/11/06 09:00:36;;;;;;;6.62;4.08;;;;;;;12.75;54.09;100255.34;1689846;83;21004;-70
2021/11/06 09:03:07;;;;;;;8.70;4.63;;;;;;;12.95;54.58;100249.09;1697892;82;21669;-69
2021/11/06 09:05:34;;;;;;;9.10;5.90;;;;;;;13.19;54.93;100243.52;1705299;83;21908;-69
2021/11/06 09:08:03;;;;;;;8.25;4.97;;;;;;;13.53;52.78;100247.55;1693092;83;21004;-68
2021/11/06 09:10:30;;;;;;;6.55;4.17;;;;;;;13.87;51.81;100261.44;1707293;82;20986;-70
2021/11/06 09:12:56;;;;;;;5.65;3.47;;;;;;;14.03;49.92;100258.23;1699533;82;21105;-69
2021/11/06 09:15:23;;;;;;;9.90;4.47;;;;;;;14.02;50.55;100246.38;1709656;82;21090;-70
2021/11/06 09:17:52;;;;;;;6.03;3.70;;;;;;;13.91;50.50;100249.76;1697389;83;21085;-72
2021/11/06 09:20:19;;;;;;;6.05;3.40;;;;;;;13.66;49.97;100258.22;1714634;81;20983;-71
2021/11/06 09:22:46;;;;;;;5.50;3.70;;;;;;;13.21;50.58;100258.36;1709693;82;21011;-70
2021/11/06 09:25:14;;;;;;;7.35;3.65;;;;;;;12.97;51.67;100253.72;1709476;82;21576;-71
2021/11/06 09:27:40;;;;;;;6.20;3.72;;;;;;;12.71;52.62;100257.70;1705659;82;21540;-69
2021/11/06 09:30:08;;;;;;;6.67;3.90;;;;;;;12.42;53.29;100252.59;1723281;83;21192;-69
2021/11/06 09:32:36;;;;;;;4.47;3.58;;;;;;;12.22;54.22;100249.73;1723425;83;21061;-69
2021/11/06 09:35:05;;;;;;;8.48;4.20;;;;;;;12.36;55.17;100253.27;1723568;83;20984;-70
2021/11/06 09:37:32;;;;;;;7.92;4.17;;;;;;;12.62;53.93;100248.55;1723486;83;21050;-68
2021/11/06 09:39:59;;;;;;;6.92;4.12;;;;;;;12.62;53.85;100244.41;1723769;83;21121;-70
2021/11/06 09:42:26;;;;;;;6.37;4.03;;;;;;;12.57;53.07;100245.35;1723391;83;21054;-69
2021/11/06 09:44:53;;;;;;;6.35;4.03;;;;;;;12.44;53.61;100242.08;1723182;83;21533;-70
2021/11/06 09:47:20;;;;;;;6.12;3.45;;;;;;;12.37;54.34;100254.08;1723482;83;22280;-70
2021/11/06 09:49:48;;;;;;;6.05;3.15;;;;;;;12.66;54.21;100245.42;1723692;83;21091;-70
2021/11/06 09:52:15;;;;;;;5.50;3.20;;;;;;;13.11;53.28;100245.62;1723213;83;21054;-70
2021/11/06 09:54:42;;;;;;;7.80;4.72;;;;;;;13.43;50.79;100232.66;1723677;83;21103;-73
2021/11/06 09:57:08;;;;;;;5.42;3.67;;;;;;;13.45;50.98;100234.53;1723252;83;21098;-71
2021/11/06 09:59:36;;;;;;;6.10;3.37;;;;;;;13.13;50.16;100239.23;1722802;83;21008;-79
2021/11/06 10:02:04;;;;;;;5.95;4.05;;;;;;;12.86;51.50;100249.84;1722823;83;21118;-77
2021/11/06 10:04:31;;;;;;;6.95;4.65;;;;;;;12.74;51.82;100243.27;1723824;83;21027;-74
2021/11/06 10:06:59;;;;;;;6.85;3.58;;;;;;;12.83;52.86;100240.01;1749683;81;21086;-71
2021/11/06 10:09:26;;;;;;;4.55;3.15;;;;;;;13.06;52.61;100230.59;1742280;80;21592;-70
2021/11/06 10:11:55;;;;;;;5.65;3.58;;;;;;;13.61;51.85;100228.02;1717191;81;21039;-70
2021/11/06 10:14:26;;;;;;;5.37;3.47;;;;;;;14.26;50.98;100223.03;1692575;83;48357;-68
2021/11/06 10:16:55;;;;;;;6.67;3.62;;;;;;;14.89;47.67;100225.69;1743215;81;21055;-73
2021/11/06 10:19:31;;;;;;;5.45;3.58;;;;;;;15.25;46.27;100213.63;1744893;81;21162;-69
2021/11/06 10:22:12;;;;;;;7.05;3.33;;;;;;;15.38;47.16;100211.22;1724477;81;21494;-70
2021/11/06 10:24:46;;;;;;;5.58;3.72;;;;;;;15.75;46.19;100207.39;1716354;81;21030;-68
2021/11/06 10:27:22;;;;;;;9.28;4.53;;;;;;;16.26;43.55;100208.17;1741693;81;20990;-71
2021/11/06 10:30:16;;;;;;;8.98;4.20;;;;;;;16.43;43.07;100214.97;1739827;80;21019;-68
2021/11/06 10:32:59;;;;;;;6.17;3.95;;;;;;;16.29;43.67;100203.34;1693438;82;21057;-69
2021/11/06 10:35:28;;;;;;;;;;;;;;;16.30;44.25;100204.39;1721130;81;21017;-70
2021/11/06 10:38:23;;;;;;;5.33;3.70;;;;;;;16.54;43.27;100194.01;1735609;81;20195;-71
2021/11/06 10:41:07;;;;;;;5.42;3.30;;;;;;;16.41;43.40;100209.77;1696680;82;21184;-70
2021/11/06 10:43:35;;;;;;;6.17;4.37;;;;;;;16.35;43.01;100207.53;1731569;80;21038;-68
2021/11/06 10:46:03;;;;;;;6.40;4.15;;;;;;;16.37;41.83;100205.23;1739156;80;22454;-68
2021/11/06 10:48:35;;;;;;;6.72;4.22;;;;;;;16.34;41.71;100209.50;1688402;83;21533;-75
2021/11/06 10:51:12;;;;;;;9.48;5.87;;;;;;;16.18;41.70;100201.55;1723231;81;21141;-75
2021/11/06 10:53:51;;;;;;;5.55;4.33;;;;;;;16.17;42.27;100209.05;1725539;81;21046;-76
2021/11/06 10:56:34;;;;;;;7.17;4.42;;;;;;;16.06;41.66;100215.34;1716180;81;21114;-86
2021/11/06 10:59:06;;;;;;;7.58;4.12;;;;;;;15.83;43.71;100217.03;1729656;81;21129;-70
2021/11/06 11:01:36;;;;;;;6.42;4.37;;;;;;;15.82;43.07;100211.25;1719248;81;21128;-74
2021/11/06 11:04:09;;;;;;;8.40;3.87;;;;;;;15.93;42.89;100206.72;1724664;81;20994;-74
2021/11/06 11:06:47;;;;;;;7.35;4.60;;;;;;;16.02;43.22;100211.62;1725765;81;21073;-69
2021/11/06 11:09:29;;;;;;;8.58;5.20;;;;;;;16.10;41.92;100217.11;1726482;81;21530;-79
2021/11/06 11:11:58;;;;;;;9.95;5.12;;;;;;;16.06;41.09;100218.12;1725775;80;21104;-71
2021/11/06 11:14:27;;;;;;;6.50;4.70;;;;;;;15.79;41.42;100214.69;1734117;80;20955;-72
2021/11/06 11:17:04;;;;;;;9.00;5.65;;;;;;;15.60;42.26;100206.00;1718022;82;20978;-70
2021/11/06 11:19:38;;;;;;;9.88;5.35;;;;;;;15.65;42.24;100209.15;1732344;81;21493;-70
2021/11/06 11:22:22;;;;;;;9.63;5.05;;;;;;;15.77;41.59;100205.91;1711454;81;21659;-71
2021/11/06 11:24:49;;;;;;;10.08;5.55;;;;;;;15.71;41.89;100210.58;1727253;82;21095;-72
2021/11/06 11:27:16;;;;;;;7.40;5.22;;;;;;;15.82;42.74;100199.37;1728720;81;22282;-73
2021/11/06 11:29:44;;;;;;;8.28;4.90;;;;;;;16.06;41.47;100205.08;1735725;82;20939;-68
2021/11/06 11:32:13;;;;;;;7.50;4.00;;;;;;;16.21;40.84;100202.84;1730896;81;21055;-69
2021/11/06 11:34:45;;;;;;;6.45;4.55;;;;;;;16.21;40.49;100200.88;1746804;81;21154;-68
2021/11/06 11:37:13;;;;;;;8.30;5.00;;;;;;;16.25;41.43;100205.98;1745921;81;21159;-68
2021/11/06 11:39:40;;;;;;;15.60;9.38;;;;;;;16.35;41.66;100203.37;1741030;82;21007;-67
2021/11/06 11:42:48;;;;;;;8.85;5.42;;;;;;;16.70;41.73;100199.77;1743536;82;21065;-67
2021/11/06 11:45:42;;;;;;;7.53;4.20;;;;;;;17.03;40.12;100211.64;1744333;81;21747;-69
2021/11/06 11:48:14;;;;;;;5.20;3.15;;;;;;;17.13;38.59;100211.78;1738789;82;22489;-68